createdAt,value
2022-10-31T00:01:03.890Z,9.2
2022-10-31T00:02:10.132Z,9.2
2022-10-31T00:03:16.266Z,9.2
2022-10-31T00:04:22.368Z,9.2
2022-10-31T00:05:28.529Z,9.2
2022-10-31T00:06:34.793Z,9.2
2022-10-31T00:07:40.859Z,9.2
2022-10-31T00:08:47.061Z,9.2
2022-10-31T00:09:53.202Z,9.2
2022-10-31T00:10:59.411Z,9.1
2022-10-31T00:12:05.559Z,9.1
2022-10-31T00:13:11.743Z,9.1
2022-10-31T00:14:17.014Z,9.1
2022-10-31T00:15:23.092Z,9.1
2022-10-31T00:16:29.246Z,9.1
2022-10-31T00:17:35.423Z,9.1
2022-10-31T00:18:41.586Z,9.1
2022-10-31T00:19:47.806Z,9.1
2022-10-31T00:20:53.918Z,9.1
2022-10-31T00:21:59.140Z,9.1
2022-10-31T00:23:04.295Z,9.1
2022-10-31T00:24:09.494Z,9.1
2022-10-31T00:25:14.696Z,9.1
2022-10-31T00:26:20.852Z,9.1
2022-10-31T00:27:26.073Z,9.1
2022-10-31T00:28:31.244Z,9.1
2022-10-31T00:29:37.411Z,9.1
2022-10-31T00:30:43.573Z,9.1
2022-10-31T00:31:49.750Z,9
2022-10-31T00:32:55.913Z,9
2022-10-31T00:34:02.148Z,9
2022-10-31T00:35:08.259Z,9
2022-10-31T00:36:14.453Z,9
2022-10-31T00:37:20.585Z,9
2022-10-31T00:38:26.782Z,9
2022-10-31T00:39:32.999Z,9
2022-10-31T00:40:39.096Z,9
2022-10-31T00:41:45.301Z,9
2022-10-31T00:42:50.448Z,9
2022-10-31T00:43:56.634Z,9
2022-10-31T00:45:02.807Z,9
2022-10-31T00:46:08.952Z,9
2022-10-31T00:47:15.158Z,9
2022-10-31T00:48:21.306Z,9
2022-10-31T00:49:27.489Z,9
2022-10-31T00:50:32.669Z,9
2022-10-31T00:51:37.845Z,8.9
2022-10-31T00:52:43.053Z,8.9
2022-10-31T00:53:48.243Z,8.9
2022-10-31T00:54:54.464Z,8.9
2022-10-31T00:56:00.582Z,8.9
2022-10-31T00:57:06.788Z,8.9
2022-10-31T00:58:12.913Z,8.9
2022-10-31T00:59:19.075Z,8.9
2022-10-31T01:00:25.247Z,8.9
2022-10-31T01:01:31.407Z,8.9
2022-10-31T01:02:37.625Z,8.9
2022-10-31T01:03:43.768Z,8.9
2022-10-31T01:04:49.941Z,8.9
2022-10-31T01:05:56.177Z,8.9
2022-10-31T01:07:02.323Z,8.9
2022-10-31T01:08:07.456Z,8.9
2022-10-31T01:09:13.636Z,8.9
2022-10-31T01:10:19.797Z,8.9
2022-10-31T01:11:26.014Z,8.9
2022-10-31T01:12:32.199Z,8.9
2022-10-31T01:13:38.341Z,8.9
2022-10-31T01:14:44.481Z,8.9
2022-10-31T01:15:49.675Z,8.9
2022-10-31T01:16:54.856Z,8.9
2022-10-31T01:18:00.048Z,8.9
2022-10-31T01:19:05.264Z,8.9
2022-10-31T01:20:11.402Z,8.9
2022-10-31T01:21:17.615Z,8.9
2022-10-31T01:22:23.726Z,8.9
2022-10-31T01:23:29.907Z,8.9
2022-10-31T01:24:36.081Z,8.9
2022-10-31T01:25:42.250Z,8.9
2022-10-31T01:26:48.461Z,8.9
2022-10-31T01:27:54.573Z,8.9
2022-10-31T01:29:00.788Z,8.9
2022-10-31T01:30:07.035Z,8.9
2022-10-31T01:31:13.096Z,8.9
2022-10-31T01:32:19.252Z,8.9
2022-10-31T01:33:24.451Z,8.9
2022-10-31T01:34:30.613Z,8.9
2022-10-31T01:35:36.800Z,8.9
2022-10-31T01:36:42.955Z,8.9
2022-10-31T01:37:49.122Z,8.9
2022-10-31T01:38:55.300Z,8.9
2022-10-31T01:40:01.461Z,8.8
2022-10-31T01:41:06.705Z,8.8
2022-10-31T01:42:11.865Z,8.8
2022-10-31T01:43:17.086Z,8.8
2022-10-31T01:44:22.263Z,8.8
2022-10-31T01:45:28.392Z,8.8
2022-10-31T01:46:34.555Z,8.8
2022-10-31T01:47:40.842Z,8.8
2022-10-31T01:48:46.927Z,8.8
2022-10-31T01:49:53.065Z,8.8
2022-10-31T01:50:59.237Z,8.8
2022-10-31T01:52:05.427Z,8.8
2022-10-31T01:53:11.569Z,8.8
2022-10-31T01:54:17.750Z,8.8
2022-10-31T01:55:23.961Z,8.8
2022-10-31T01:56:30.110Z,8.8
2022-10-31T01:57:36.265Z,8.8
2022-10-31T01:58:41.476Z,8.8
2022-10-31T01:59:47.633Z,8.8
2022-10-31T02:00:53.771Z,8.8
2022-10-31T02:01:59.950Z,8.8
2022-10-31T02:03:06.148Z,8.8
2022-10-31T02:04:12.276Z,8.8
2022-10-31T02:05:18.557Z,8.8
2022-10-31T02:06:23.681Z,8.8
2022-10-31T02:07:28.835Z,8.8
2022-10-31T02:08:34.061Z,8.8
2022-10-31T02:09:39.218Z,8.8
2022-10-31T02:10:45.402Z,8.8
2022-10-31T02:11:51.588Z,8.8
2022-10-31T02:12:57.730Z,8.8
2022-10-31T02:14:03.922Z,8.8
2022-10-31T02:15:10.085Z,8.8
2022-10-31T02:16:16.252Z,8.8
2022-10-31T02:17:22.426Z,8.8
2022-10-31T02:18:28.592Z,8.8
2022-10-31T02:19:34.751Z,8.8
2022-10-31T02:20:40.922Z,8.8
2022-10-31T02:21:47.088Z,8.8
2022-10-31T02:22:53.252Z,8.8
2022-10-31T02:23:58.445Z,8.8
2022-10-31T02:25:04.618Z,8.8
2022-10-31T02:26:10.767Z,8.8
2022-10-31T02:27:16.966Z,8.8
2022-10-31T02:28:23.114Z,8.9
2022-10-31T02:29:29.317Z,8.9
2022-10-31T02:30:35.456Z,8.9
2022-10-31T02:31:40.656Z,8.9
2022-10-31T02:32:45.837Z,8.9
2022-10-31T02:33:51.072Z,8.9
2022-10-31T02:34:56.269Z,8.9
2022-10-31T02:36:02.421Z,8.9
2022-10-31T02:37:08.551Z,8.9
2022-10-31T02:38:14.756Z,8.9
2022-10-31T02:39:20.897Z,8.9
2022-10-31T02:40:27.095Z,8.9
2022-10-31T02:41:33.228Z,8.9
2022-10-31T02:42:39.416Z,9
2022-10-31T02:43:45.616Z,9
2022-10-31T02:44:51.814Z,9
2022-10-31T02:45:58.018Z,9
2022-10-31T02:47:04.093Z,9
2022-10-31T02:48:10.249Z,9
2022-10-31T02:49:15.432Z,9
2022-10-31T02:50:21.648Z,9
2022-10-31T02:51:27.769Z,9
2022-10-31T02:52:33.987Z,9
2022-10-31T02:53:40.148Z,9
2022-10-31T02:54:46.296Z,9
2022-10-31T02:55:52.473Z,9
2022-10-31T02:56:57.652Z,9
2022-10-31T02:58:02.868Z,9
2022-10-31T02:59:09.000Z,9
2022-10-31T03:00:15.271Z,9
2022-10-31T03:01:21.452Z,9
2022-10-31T03:02:27.516Z,9
2022-10-31T03:03:33.701Z,9.1
2022-10-31T03:04:39.852Z,9.1
2022-10-31T03:05:46.015Z,9.1
2022-10-31T03:06:52.210Z,9.1
2022-10-31T03:07:58.348Z,9.1
2022-10-31T03:09:04.519Z,9.1
2022-10-31T03:10:10.729Z,9.1
2022-10-31T03:11:16.960Z,9.1
2022-10-31T03:12:22.058Z,9.1
2022-10-31T03:13:28.222Z,9.1
2022-10-31T03:14:34.381Z,9.1
2022-10-31T03:15:40.571Z,9.1
2022-10-31T03:16:46.747Z,9.1
2022-10-31T03:17:52.905Z,9
2022-10-31T03:18:59.066Z,9
2022-10-31T03:20:04.268Z,9
2022-10-31T03:21:09.491Z,9
2022-10-31T03:22:15.611Z,9
2022-10-31T03:23:21.781Z,9
2022-10-31T03:24:27.968Z,9
2022-10-31T03:25:34.131Z,9
2022-10-31T03:26:40.289Z,8.9
2022-10-31T03:27:46.498Z,8.9
2022-10-31T03:28:52.629Z,8.9
2022-10-31T03:29:58.816Z,8.9
2022-10-31T03:31:04.972Z,8.9
2022-10-31T03:32:11.152Z,8.9
2022-10-31T03:33:17.316Z,8.9
2022-10-31T03:34:23.493Z,9
2022-10-31T03:35:28.669Z,9
2022-10-31T03:36:34.842Z,9
2022-10-31T03:37:41.034Z,9
2022-10-31T03:38:47.191Z,9
2022-10-31T03:39:53.339Z,9
2022-10-31T03:40:59.620Z,9
2022-10-31T03:42:05.685Z,9
2022-10-31T03:43:10.881Z,9
2022-10-31T03:44:16.075Z,9
2022-10-31T03:45:21.252Z,8.9
2022-10-31T03:46:26.457Z,8.9
2022-10-31T03:47:31.654Z,8.9
2022-10-31T03:48:36.867Z,8.9
2022-10-31T03:49:43.084Z,8.9
2022-10-31T03:50:49.170Z,8.9
2022-10-31T03:51:55.334Z,8.9
2022-10-31T03:53:01.509Z,8.9
2022-10-31T03:54:07.689Z,9
2022-10-31T03:55:13.854Z,9
2022-10-31T03:56:20.065Z,9
2022-10-31T03:57:26.182Z,9
2022-10-31T03:58:32.364Z,9
2022-10-31T03:59:38.520Z,9
2022-10-31T04:00:44.703Z,9
2022-10-31T04:01:50.872Z,9
2022-10-31T04:02:56.045Z,9
2022-10-31T04:04:02.223Z,9
2022-10-31T04:05:08.393Z,9
2022-10-31T04:06:14.583Z,9
2022-10-31T04:07:20.730Z,9
2022-10-31T04:08:26.907Z,9
2022-10-31T04:09:33.074Z,8.9
2022-10-31T04:10:38.271Z,8.9
2022-10-31T04:11:43.447Z,8.9
2022-10-31T04:12:48.664Z,8.9
2022-10-31T04:13:53.822Z,8.9
2022-10-31T04:15:00.004Z,8.9
2022-10-31T04:16:06.166Z,8.9
2022-10-31T04:17:12.344Z,8.9
2022-10-31T04:18:18.513Z,8.9
2022-10-31T04:19:24.678Z,8.9
2022-10-31T04:20:30.836Z,8.9
2022-10-31T04:21:37.016Z,8.9
2022-10-31T04:22:43.205Z,8.8
2022-10-31T04:23:49.360Z,8.8
2022-10-31T04:24:55.518Z,8.8
2022-10-31T04:26:01.697Z,8.8
2022-10-31T04:27:07.900Z,8.8
2022-10-31T04:28:13.061Z,8.8
2022-10-31T04:29:19.209Z,8.8
2022-10-31T04:30:25.403Z,8.8
2022-10-31T04:31:31.590Z,8.8
2022-10-31T04:32:36.739Z,8.8
2022-10-31T04:33:42.940Z,8.8
2022-10-31T04:34:49.206Z,8.8
2022-10-31T04:35:54.319Z,8.8
2022-10-31T04:36:59.489Z,8.8
2022-10-31T04:38:04.651Z,8.8
2022-10-31T04:39:09.865Z,8.8
2022-10-31T04:40:16.017Z,8.8
2022-10-31T04:41:22.176Z,8.8
2022-10-31T04:42:28.372Z,8.8
2022-10-31T04:43:34.531Z,8.8
2022-10-31T04:44:40.694Z,8.8
2022-10-31T04:45:46.864Z,8.8
2022-10-31T04:46:53.076Z,8.8
2022-10-31T04:47:59.276Z,8.8
2022-10-31T04:49:05.365Z,8.8
2022-10-31T04:50:11.531Z,8.8
2022-10-31T04:51:17.756Z,8.8
2022-10-31T04:52:23.878Z,8.7
2022-10-31T04:53:29.074Z,8.7
2022-10-31T04:54:35.219Z,8.7
2022-10-31T04:55:41.402Z,8.7
2022-10-31T04:56:47.596Z,8.7
2022-10-31T04:57:53.814Z,8.7
2022-10-31T04:58:59.927Z,8.7
2022-10-31T05:00:06.066Z,8.7
2022-10-31T05:01:11.280Z,8.7
2022-10-31T05:02:16.506Z,8.7
2022-10-31T05:03:22.703Z,8.7
2022-10-31T05:04:27.859Z,8.7
2022-10-31T05:05:33.022Z,8.7
2022-10-31T05:07:45.376Z,8.7
2022-10-31T05:08:51.542Z,8.7
2022-10-31T05:09:57.692Z,8.7
2022-10-31T05:11:03.846Z,8.7
2022-10-31T05:12:10.051Z,8.7
2022-10-31T05:13:16.249Z,8.7
2022-10-31T05:14:22.416Z,8.7
2022-10-31T05:15:28.553Z,8.7
2022-10-31T05:16:34.746Z,8.6
2022-10-31T05:17:40.885Z,8.6
2022-10-31T05:18:47.054Z,8.6
2022-10-31T05:19:52.228Z,8.6
2022-10-31T05:20:58.401Z,8.6
2022-10-31T05:22:04.599Z,8.6
2022-10-31T05:23:10.751Z,8.6
2022-10-31T05:24:16.920Z,8.6
2022-10-31T05:25:23.070Z,8.6
2022-10-31T05:26:29.273Z,8.6
2022-10-31T05:27:35.408Z,8.6
2022-10-31T05:28:40.645Z,8.5
2022-10-31T05:29:45.791Z,8.5
2022-10-31T05:30:50.994Z,8.5
2022-10-31T05:31:56.160Z,8.6
2022-10-31T05:33:02.344Z,8.6
2022-10-31T05:34:08.543Z,8.6
2022-10-31T05:35:14.669Z,8.6
2022-10-31T05:36:20.926Z,8.6
2022-10-31T05:37:27.020Z,8.6
2022-10-31T05:38:33.182Z,8.6
2022-10-31T05:39:39.353Z,8.6
2022-10-31T05:40:45.528Z,8.6
2022-10-31T05:41:51.730Z,8.6
2022-10-31T05:42:57.934Z,8.6
2022-10-31T05:44:04.044Z,8.6
2022-10-31T05:45:10.229Z,8.6
2022-10-31T05:46:15.387Z,8.6
2022-10-31T05:47:21.612Z,8.6
2022-10-31T05:48:27.772Z,8.6
2022-10-31T05:49:33.902Z,8.6
2022-10-31T05:50:40.054Z,8.6
2022-10-31T05:51:46.246Z,8.6
2022-10-31T05:52:52.415Z,8.6
2022-10-31T05:53:57.646Z,8.6
2022-10-31T05:55:02.825Z,8.6
2022-10-31T05:56:07.988Z,8.6
2022-10-31T05:57:13.192Z,8.6
2022-10-31T05:58:19.420Z,8.6
2022-10-31T05:59:25.557Z,8.6
2022-10-31T06:00:31.753Z,8.6
2022-10-31T06:01:37.842Z,8.6
2022-10-31T06:02:44.062Z,8.7
2022-10-31T06:03:50.184Z,8.7
2022-10-31T06:04:56.363Z,8.7
2022-10-31T06:06:02.530Z,8.7
2022-10-31T06:07:08.707Z,8.7
2022-10-31T06:08:14.974Z,8.7
2022-10-31T06:09:21.107Z,8.7
2022-10-31T06:10:27.189Z,8.7
2022-10-31T06:11:32.379Z,8.8
2022-10-31T06:12:38.560Z,8.8
2022-10-31T06:13:44.717Z,8.8
2022-10-31T06:14:50.954Z,8.8
2022-10-31T06:15:57.112Z,8.8
2022-10-31T06:17:03.284Z,8.9
2022-10-31T06:18:09.457Z,8.9
2022-10-31T06:19:14.661Z,8.9
2022-10-31T06:20:19.780Z,8.9
2022-10-31T06:21:25.948Z,8.9
2022-10-31T06:22:32.140Z,9
2022-10-31T06:23:37.311Z,9
2022-10-31T06:24:42.507Z,9
2022-10-31T06:25:48.724Z,9
2022-10-31T06:26:54.844Z,9
2022-10-31T06:28:01.044Z,9
2022-10-31T06:29:07.171Z,9
2022-10-31T06:30:13.409Z,9
2022-10-31T06:31:19.584Z,9
2022-10-31T06:32:25.683Z,9.1
2022-10-31T06:33:31.857Z,9.1
2022-10-31T06:34:38.031Z,9.1
2022-10-31T06:35:44.239Z,9.1
2022-10-31T06:36:50.362Z,9.1
2022-10-31T06:37:56.535Z,9.2
2022-10-31T06:39:01.732Z,9.2
2022-10-31T06:40:07.879Z,9.2
2022-10-31T06:41:14.080Z,9.2
2022-10-31T06:42:20.231Z,9.3
2022-10-31T06:43:26.411Z,9.3
2022-10-31T06:44:32.563Z,9.3
2022-10-31T06:45:38.763Z,9.3
2022-10-31T06:46:44.019Z,9.4
2022-10-31T06:47:49.135Z,9.4
2022-10-31T06:48:54.370Z,9.4
2022-10-31T06:49:59.508Z,9.5
2022-10-31T06:51:05.760Z,9.5
2022-10-31T06:52:11.926Z,9.5
2022-10-31T06:53:18.080Z,9.5
2022-10-31T06:54:24.200Z,9.6
2022-10-31T06:55:30.365Z,9.6
2022-10-31T06:56:36.523Z,9.7
2022-10-31T06:57:42.682Z,9.7
2022-10-31T06:58:48.865Z,9.7
2022-10-31T06:59:55.056Z,9.8
2022-10-31T07:01:01.274Z,9.8
2022-10-31T07:02:07.372Z,9.8
2022-10-31T07:03:13.579Z,9.8
2022-10-31T07:04:18.764Z,9.9
2022-10-31T07:05:24.902Z,9.9
2022-10-31T07:06:31.088Z,9.9
2022-10-31T07:07:37.264Z,10
2022-10-31T07:08:43.437Z,10
2022-10-31T07:09:49.607Z,10
2022-10-31T07:10:55.745Z,10.1
2022-10-31T07:12:00.961Z,10.1
2022-10-31T07:13:06.120Z,10.2
2022-10-31T07:14:12.304Z,10.2
2022-10-31T07:15:17.500Z,10.2
2022-10-31T07:16:22.825Z,10.2
2022-10-31T07:17:28.846Z,10.3
2022-10-31T07:18:35.027Z,10.3
2022-10-31T07:19:41.196Z,10.3
2022-10-31T07:20:47.376Z,10.4
2022-10-31T07:21:53.616Z,10.4
2022-10-31T07:22:59.698Z,10.4
2022-10-31T07:24:05.895Z,10.5
2022-10-31T07:25:12.033Z,10.5
2022-10-31T07:26:18.277Z,10.6
2022-10-31T07:27:24.430Z,10.6
2022-10-31T07:28:30.580Z,10.7
2022-10-31T07:29:36.763Z,10.8
2022-10-31T07:30:41.968Z,10.8
2022-10-31T07:31:48.078Z,10.9
2022-10-31T07:32:54.275Z,10.9
2022-10-31T07:34:00.455Z,11
2022-10-31T07:35:06.638Z,11
2022-10-31T07:36:12.850Z,11.1
2022-10-31T07:37:18.942Z,11.1
2022-10-31T07:38:24.110Z,11.2
2022-10-31T07:39:29.292Z,11.2
2022-10-31T07:40:34.487Z,11.3
2022-10-31T07:41:39.742Z,11.4
2022-10-31T07:42:45.851Z,11.4
2022-10-31T07:43:52.105Z,11.5
2022-10-31T07:44:58.230Z,11.6
2022-10-31T07:46:04.419Z,11.6
2022-10-31T07:47:10.533Z,11.7
2022-10-31T07:48:16.749Z,11.7
2022-10-31T07:49:22.871Z,11.8
2022-10-31T07:50:29.053Z,11.9
2022-10-31T07:51:35.237Z,11.9
2022-10-31T07:52:41.457Z,12
2022-10-31T07:53:47.645Z,12.1
2022-10-31T07:54:53.716Z,12.1
2022-10-31T07:55:58.976Z,12.2
2022-10-31T07:57:05.137Z,12.3
2022-10-31T07:58:11.274Z,12.3
2022-10-31T07:59:17.400Z,12.4
2022-10-31T08:00:23.659Z,12.4
2022-10-31T08:01:29.754Z,12.5
2022-10-31T08:02:35.944Z,12.5
2022-10-31T08:03:41.225Z,12.6
2022-10-31T08:04:46.358Z,12.7
2022-10-31T08:05:52.566Z,12.7
2022-10-31T08:06:57.672Z,12.8
2022-10-31T08:08:02.863Z,12.8
2022-10-31T08:09:09.035Z,12.9
2022-10-31T08:10:15.188Z,12.9
2022-10-31T08:11:21.440Z,13
2022-10-31T08:12:27.553Z,13
2022-10-31T08:13:32.738Z,13.1
2022-10-31T08:14:38.947Z,13.2
2022-10-31T08:15:45.049Z,13.2
2022-10-31T08:16:51.226Z,13.3
2022-10-31T08:17:57.436Z,13.4
2022-10-31T08:19:03.617Z,13.4
2022-10-31T08:20:09.745Z,13.5
2022-10-31T08:21:16.028Z,13.5
2022-10-31T08:22:22.125Z,13.6
2022-10-31T08:23:28.298Z,13.7
2022-10-31T08:24:34.420Z,13.7
2022-10-31T08:25:40.627Z,13.8
2022-10-31T08:26:46.775Z,13.9
2022-10-31T08:27:51.964Z,13.9
2022-10-31T08:28:58.111Z,14
2022-10-31T08:30:03.301Z,14.1
2022-10-31T08:31:08.535Z,14.1
2022-10-31T08:32:13.689Z,14.2
2022-10-31T08:33:18.881Z,14.3
2022-10-31T08:34:25.043Z,14.3
2022-10-31T08:35:31.218Z,14.4
2022-10-31T08:36:37.400Z,14.5
2022-10-31T08:37:43.632Z,14.6
2022-10-31T08:38:49.740Z,14.6
2022-10-31T08:39:55.877Z,14.7
2022-10-31T08:41:02.048Z,14.8
2022-10-31T08:42:08.232Z,14.9
2022-10-31T08:43:14.417Z,15
2022-10-31T08:44:20.577Z,15
2022-10-31T08:45:26.739Z,15.1
2022-10-31T08:46:32.935Z,15.2
2022-10-31T08:47:38.088Z,15.3
2022-10-31T08:48:44.274Z,15.3
2022-10-31T08:49:50.425Z,15.4
2022-10-31T08:50:56.613Z,15.4
2022-10-31T08:52:02.788Z,15.5
2022-10-31T08:53:08.941Z,15.5
2022-10-31T08:54:15.108Z,15.5
2022-10-31T08:55:21.333Z,15.6
2022-10-31T08:56:27.459Z,15.7
2022-10-31T08:57:33.671Z,15.7
2022-10-31T08:58:39.802Z,15.7
2022-10-31T08:59:45.945Z,15.8
2022-10-31T09:00:52.197Z,15.9
2022-10-31T09:01:57.395Z,15.9
2022-10-31T09:03:03.563Z,16
2022-10-31T09:04:09.750Z,16.1
2022-10-31T09:05:15.822Z,16.1
2022-10-31T09:06:21.998Z,16.2
2022-10-31T09:07:27.237Z,16.3
2022-10-31T09:08:32.389Z,16.3
2022-10-31T09:09:37.649Z,16.4
2022-10-31T09:10:42.812Z,16.4
2022-10-31T09:11:48.936Z,16.4
2022-10-31T09:12:55.099Z,16.4
2022-10-31T09:14:01.304Z,16.4
2022-10-31T09:15:07.420Z,16.4
2022-10-31T09:16:13.591Z,16.4
2022-10-31T09:17:19.791Z,16.5
2022-10-31T09:18:25.983Z,16.5
2022-10-31T09:19:32.107Z,16.5
2022-10-31T09:20:38.284Z,16.6
2022-10-31T09:21:44.446Z,16.6
2022-10-31T09:22:50.624Z,16.7
2022-10-31T09:23:56.913Z,16.8
2022-10-31T09:25:01.990Z,16.8
2022-10-31T09:26:08.187Z,16.9
2022-10-31T09:27:14.323Z,17
2022-10-31T09:28:20.492Z,17
2022-10-31T09:29:26.685Z,17.1
2022-10-31T09:30:32.840Z,17.3
2022-10-31T09:31:39.054Z,17.4
2022-10-31T09:33:50.357Z,17.7
2022-10-31T09:34:55.553Z,17.8
2022-10-31T09:36:00.756Z,18.1
2022-10-31T09:38:13.076Z,18.4
2022-10-31T09:39:19.308Z,18.4
2022-10-31T09:40:27.088Z,18.4
2022-10-31T09:41:31.629Z,18.5
2022-10-31T09:42:36.896Z,18.6
2022-10-31T09:43:43.025Z,18.6
2022-10-31T09:45:54.401Z,18.6
2022-10-31T09:47:00.589Z,18.7
2022-10-31T09:49:12.810Z,18.7
2022-10-31T09:50:19.081Z,18.7
2022-10-31T09:51:25.197Z,18.6
2022-10-31T09:52:31.314Z,18.6
2022-10-31T09:53:37.497Z,18.6
2022-10-31T09:54:43.712Z,18.5
2022-10-31T09:55:49.861Z,18.6
2022-10-31T09:56:55.084Z,18.6
2022-10-31T09:58:00.211Z,18.7
2022-10-31T09:59:06.463Z,18.7
2022-10-31T10:00:12.656Z,18.7
2022-10-31T10:01:18.744Z,18.7
2022-10-31T10:02:24.964Z,18.7
2022-10-31T10:03:31.065Z,18.7
2022-10-31T10:04:37.253Z,18.7
2022-10-31T10:05:43.405Z,18.6
2022-10-31T10:07:55.752Z,18.5
2022-10-31T10:09:01.916Z,18.5
2022-10-31T10:10:08.087Z,18.5
2022-10-31T10:11:14.277Z,18.5
2022-10-31T10:12:19.440Z,18.5
2022-10-31T10:13:25.597Z,18.5
2022-10-31T10:14:31.786Z,18.6
2022-10-31T10:15:37.944Z,18.7
2022-10-31T10:16:44.103Z,18.9
2022-10-31T10:17:50.277Z,19.2
2022-10-31T10:18:57.787Z,19.3
2022-10-31T10:20:02.615Z,19.4
2022-10-31T10:21:07.954Z,19.5
2022-10-31T10:22:13.013Z,19.5
2022-10-31T10:23:19.195Z,19.4
2022-10-31T10:24:25.436Z,19.4
2022-10-31T10:25:30.545Z,19.4
2022-10-31T10:26:35.725Z,19.4
2022-10-31T10:27:41.891Z,19.3
2022-10-31T10:28:48.096Z,19.4
2022-10-31T10:29:54.230Z,19.4
2022-10-31T10:31:00.430Z,19.4
2022-10-31T10:32:06.574Z,19.4
2022-10-31T10:33:12.726Z,19.4
2022-10-31T10:34:18.901Z,19.5
2022-10-31T10:35:25.116Z,19.5
2022-10-31T10:37:37.433Z,19.7
2022-10-31T10:38:43.564Z,19.7
2022-10-31T10:39:49.757Z,19.7
2022-10-31T10:40:54.933Z,19.7
2022-10-31T10:43:07.260Z,19.7
2022-10-31T10:44:12.503Z,19.6
2022-10-31T10:45:17.669Z,19.5
2022-10-31T10:46:23.825Z,19.4
2022-10-31T10:48:36.230Z,19.3
2022-10-31T10:49:42.369Z,19.2
2022-10-31T10:50:48.501Z,19.1
2022-10-31T10:51:54.674Z,19.1
2022-10-31T10:53:00.844Z,19
2022-10-31T10:54:07.018Z,19
2022-10-31T10:55:13.167Z,18.9
2022-10-31T10:56:19.353Z,18.8
2022-10-31T10:57:25.519Z,18.8
2022-10-31T10:58:31.675Z,18.7
2022-10-31T10:59:36.886Z,18.6
2022-10-31T11:00:43.041Z,18.6
2022-10-31T11:01:49.212Z,18.5
2022-10-31T11:02:55.402Z,18.5
2022-10-31T11:04:01.556Z,18.4
2022-10-31T11:05:07.727Z,18.3
2022-10-31T11:06:13.878Z,18.3
2022-10-31T11:07:20.070Z,18.2
2022-10-31T11:08:26.228Z,18.2
2022-10-31T11:09:31.496Z,18.2
2022-10-31T11:10:36.724Z,18.1
2022-10-31T11:11:42.860Z,18
2022-10-31T11:12:49.077Z,18
2022-10-31T11:13:55.258Z,18
2022-10-31T11:15:01.413Z,18.1
2022-10-31T11:16:07.594Z,18.1
2022-10-31T11:17:13.738Z,18.2
2022-10-31T11:18:19.807Z,18.2
2022-10-31T11:19:26.132Z,18.2
2022-10-31T11:21:38.433Z,18.4
2022-10-31T11:22:44.605Z,18.6
2022-10-31T11:23:50.773Z,18.9
2022-10-31T11:24:55.886Z,19.1
2022-10-31T11:26:02.070Z,19.3
2022-10-31T11:27:08.210Z,19.4
2022-10-31T11:28:14.340Z,19.5
2022-10-31T11:29:20.511Z,19.7
2022-10-31T11:30:26.672Z,19.8
2022-10-31T11:32:39.043Z,20
2022-10-31T11:33:45.250Z,20.1
2022-10-31T11:34:50.407Z,19.9
2022-10-31T11:35:55.693Z,20
2022-10-31T11:38:08.015Z,20
2022-10-31T11:39:14.166Z,20.1
2022-10-31T11:40:20.313Z,20.1
2022-10-31T11:41:25.470Z,20.1
2022-10-31T11:42:30.725Z,20.3
2022-10-31T11:43:36.826Z,20.4
2022-10-31T11:44:42.953Z,20.5
2022-10-31T11:45:49.138Z,20.7
2022-10-31T11:46:55.313Z,21
2022-10-31T11:48:01.579Z,21.5
2022-10-31T11:49:07.663Z,22.3
2022-10-31T11:50:13.821Z,22.7
2022-10-31T11:51:20.016Z,23.3
2022-10-31T11:52:26.221Z,23.6
2022-10-31T11:53:32.311Z,23.7
2022-10-31T11:54:37.530Z,24
2022-10-31T11:56:49.866Z,23.6
2022-10-31T11:57:56.017Z,23.8
2022-10-31T11:59:02.209Z,23.9
2022-10-31T12:00:08.413Z,23.9
2022-10-31T12:02:20.794Z,23.6
2022-10-31T12:03:25.912Z,23.8
2022-10-31T12:04:31.154Z,23.6
2022-10-31T12:05:37.327Z,23.4
2022-10-31T12:06:43.532Z,23.5
2022-10-31T12:07:49.666Z,23.8
2022-10-31T12:08:55.869Z,23.8
2022-10-31T12:10:01.925Z,23.9
2022-10-31T12:11:08.108Z,23.4
2022-10-31T12:12:14.284Z,23
2022-10-31T12:13:20.479Z,22.8
2022-10-31T12:14:26.600Z,22.6
2022-10-31T12:15:31.855Z,22.3
2022-10-31T12:16:36.982Z,22.1
2022-10-31T12:17:43.324Z,21.8
2022-10-31T12:18:49.465Z,21.5
2022-10-31T12:19:55.530Z,21.4
2022-10-31T12:21:01.801Z,21.3
2022-10-31T12:23:14.050Z,22.1
2022-10-31T12:24:20.197Z,22.8
2022-10-31T12:25:26.339Z,23.3
2022-10-31T12:26:32.514Z,23.6
2022-10-31T12:27:38.690Z,23.9
2022-10-31T12:28:44.877Z,24.3
2022-10-31T12:29:51.054Z,24.4
2022-10-31T12:30:56.203Z,24.4
2022-10-31T12:32:02.406Z,24.5
2022-10-31T12:33:08.639Z,24.6
2022-10-31T12:34:14.839Z,24.7
2022-10-31T12:35:20.950Z,24.7
2022-10-31T12:36:27.131Z,24.8
2022-10-31T12:37:33.257Z,24.8
2022-10-31T12:38:39.397Z,24.8
2022-10-31T12:39:44.718Z,24.6
2022-10-31T12:40:49.798Z,24.5
2022-10-31T12:41:55.071Z,24.4
2022-10-31T12:43:00.158Z,24.4
2022-10-31T12:44:06.390Z,24.3
2022-10-31T12:45:12.579Z,24.4
2022-10-31T12:46:18.747Z,24.4
2022-10-31T12:47:24.845Z,24.4
2022-10-31T12:48:31.024Z,24.5
2022-10-31T12:49:37.206Z,24.6
2022-10-31T12:50:43.424Z,24.6
2022-10-31T12:51:49.522Z,24.5
2022-10-31T12:52:55.742Z,24.4
2022-10-31T12:54:01.882Z,24.3
2022-10-31T12:55:08.047Z,24.3
2022-10-31T12:56:14.304Z,24.4
2022-10-31T12:57:19.423Z,24.3
2022-10-31T12:58:25.632Z,24.3
2022-10-31T12:59:31.714Z,24.4
2022-10-31T13:00:37.892Z,24.4
2022-10-31T13:01:44.080Z,24.4
2022-10-31T13:02:50.201Z,24.3
2022-10-31T13:03:56.436Z,24.2
2022-10-31T13:05:01.633Z,24.2
2022-10-31T13:06:06.848Z,24.2
2022-10-31T13:07:12.951Z,24.3
2022-10-31T13:08:19.108Z,24.2
2022-10-31T13:09:25.325Z,24.2
2022-10-31T13:10:31.464Z,24.2
2022-10-31T13:11:37.741Z,24.1
2022-10-31T13:12:43.793Z,24.3
2022-10-31T13:13:50.002Z,24.3
2022-10-31T13:14:56.134Z,24.4
2022-10-31T13:16:02.354Z,24.4
2022-10-31T13:17:08.557Z,24.4
2022-10-31T13:18:14.629Z,24.4
2022-10-31T13:19:20.823Z,24.4
2022-10-31T13:20:25.986Z,24.1
2022-10-31T13:21:32.146Z,23.7
2022-10-31T13:22:38.317Z,23.6
2022-10-31T13:23:44.499Z,23.3
2022-10-31T13:24:50.723Z,22.8
2022-10-31T13:25:57.004Z,22.2
2022-10-31T13:27:03.159Z,21.6
2022-10-31T13:28:08.201Z,21.2
2022-10-31T13:29:13.535Z,20.9
2022-10-31T13:30:18.623Z,20.7
2022-10-31T13:31:23.805Z,20.5
2022-10-31T13:32:30.063Z,20.4
2022-10-31T13:33:35.235Z,20.3
2022-10-31T13:34:40.490Z,20.3
2022-10-31T13:35:46.629Z,20.3
2022-10-31T13:36:52.773Z,20.3
2022-10-31T13:37:58.883Z,20.4
2022-10-31T13:39:05.128Z,20.6
2022-10-31T13:40:11.162Z,20.8
2022-10-31T13:41:17.402Z,20.7
2022-10-31T13:42:23.647Z,21
2022-10-31T13:43:29.731Z,21.4
2022-10-31T13:44:35.841Z,21.4
2022-10-31T13:45:42.058Z,21.5
2022-10-31T13:46:48.248Z,21.6
2022-10-31T13:47:54.366Z,21.7
2022-10-31T13:48:59.545Z,21.6
2022-10-31T13:50:05.798Z,21.8
2022-10-31T13:51:11.918Z,21.6
2022-10-31T13:52:18.098Z,21.9
2022-10-31T13:53:24.228Z,22
2022-10-31T13:54:31.094Z,22.1
2022-10-31T13:55:36.560Z,22.1
2022-10-31T13:56:41.765Z,22.3
2022-10-31T13:57:46.936Z,22.5
2022-10-31T13:58:52.279Z,22.9
2022-10-31T13:59:57.426Z,23.2
2022-10-31T14:01:02.580Z,23.4
2022-10-31T14:02:07.847Z,23.4
2022-10-31T14:03:14.002Z,23.4
2022-10-31T14:04:20.178Z,23.4
2022-10-31T14:05:26.231Z,23.5
2022-10-31T14:06:32.490Z,23.6
2022-10-31T14:07:38.683Z,23.5
2022-10-31T14:08:44.848Z,23.6
2022-10-31T14:09:51.038Z,23.6
2022-10-31T14:10:57.042Z,23.5
2022-10-31T14:12:03.230Z,23.4
2022-10-31T14:13:09.533Z,23.5
2022-10-31T14:14:15.564Z,23.3
2022-10-31T14:15:21.731Z,23.1
2022-10-31T14:16:26.955Z,22.9
2022-10-31T14:17:33.146Z,22.8
2022-10-31T14:18:39.327Z,22.7
2022-10-31T14:19:45.477Z,22.3
2022-10-31T14:20:51.701Z,22.3
2022-10-31T14:21:57.821Z,22.4
2022-10-31T14:23:03.932Z,22.4
2022-10-31T14:24:09.222Z,22.2
2022-10-31T14:25:14.458Z,21.8
2022-10-31T14:26:20.607Z,21.5
2022-10-31T14:27:26.787Z,21.1
2022-10-31T14:28:32.945Z,20.8
2022-10-31T14:29:39.113Z,20.4
2022-10-31T14:30:45.159Z,20.1
2022-10-31T14:31:51.435Z,19.8
2022-10-31T14:32:57.595Z,19.6
2022-10-31T14:34:03.735Z,19.3
2022-10-31T14:35:09.880Z,19.1
2022-10-31T14:36:16.015Z,18.9
2022-10-31T14:37:22.172Z,18.7
2022-10-31T14:38:28.357Z,18.5
2022-10-31T14:39:33.541Z,18.3
2022-10-31T14:40:39.783Z,18.2
2022-10-31T14:41:45.943Z,18
2022-10-31T14:42:52.094Z,17.9
2022-10-31T14:43:58.310Z,17.8
2022-10-31T14:45:04.393Z,17.7
2022-10-31T14:46:10.660Z,17.5
2022-10-31T14:47:15.772Z,17.4
2022-10-31T14:48:20.935Z,17.3
2022-10-31T14:49:27.126Z,17.3
2022-10-31T14:50:33.271Z,17.3
2022-10-31T14:51:39.495Z,17.3
2022-10-31T14:52:45.661Z,17.3
2022-10-31T14:53:51.908Z,17.3
2022-10-31T14:54:58.025Z,17.3
2022-10-31T14:56:04.133Z,17.3
2022-10-31T14:57:10.347Z,17.3
2022-10-31T14:58:16.559Z,17.3
2022-10-31T14:59:22.670Z,17.3
2022-10-31T15:00:28.906Z,17.3
2022-10-31T15:01:35.050Z,17.3
2022-10-31T15:02:40.205Z,17.3
2022-10-31T15:03:46.378Z,17.3
2022-10-31T15:04:52.501Z,17.3
2022-10-31T15:05:58.672Z,17.3
2022-10-31T15:07:04.915Z,17.2
2022-10-31T15:08:11.043Z,17.2
2022-10-31T15:09:17.176Z,17.2
2022-10-31T15:10:22.455Z,17.2
2022-10-31T15:11:27.595Z,17.1
2022-10-31T15:12:32.764Z,17.1
2022-10-31T15:13:37.957Z,17.1
2022-10-31T15:14:43.184Z,17
2022-10-31T15:15:48.372Z,16.9
2022-10-31T15:16:54.569Z,16.9